| time (UTC) | temp C | wind direction | speed KPH | gust KPH | rain 1hr cm | rain 24hr cm | rain mn cm | humidity % | barometer mb |
| 20260507070043 | 6 | 135 | 1.6 | 6.4 | 0.36 | 0.48 | 0.46 | 97 | 1008.2 |
| 20260507065041 | 6 | 112 | 3.2 | 9.7 | 0.38 | 0.48 | 0.46 | 96 | 1007.6 |
| 20260507064031 | 6 | 135 | 6.4 | 6.4 | 0.36 | 0.43 | 0.38 | 96 | 1008.0 |
| 20260507063025 | 6 | 157 | 1.6 | 6.4 | 0.30 | 0.33 | 0.33 | 96 | 1008.1 |
| 20260507062020 | 6 | 202 | 3.2 | 6.4 | 0.23 | 0.28 | 0.23 | 95 | 1008.7 |
| 20260507061015 | 7 | 202 | 1.6 | 6.4 | 0.13 | 0.15 | 0.13 | 95 | 1008.6 |
| 20260507060010 | 6 | 180 | 0.0 | 6.4 | 0.10 | 0.13 | 0.10 | 94 | 1008.4 |
| 20260507055000 | 7 | 135 | 0.0 | 3.2 | 0.05 | 0.10 | 0.05 | 93 | 1007.9 |
| 20260507053954 | 7 | 135 | 3.2 | 3.2 | 0.03 | 0.05 | 0.03 | 92 | 1008.1 |
| 20260507052949 | 7 | 157 | 0.0 | 3.2 | 0.00 | 0.03 | 0.00 | 92 | 1008.1 |
| 20260507051942 | 7 | 135 | 0.0 | 6.4 | 0.00 | 0.03 | 0.00 | 91 | 1007.6 |
| 20260507050938 | 7 | 180 | 1.6 | 6.4 | 0.00 | 0.03 | 0.00 | 90 | 1007.4 |
| 20260507045929 | 7 | 112 | 3.2 | 6.4 | 0.00 | 0.03 | 0.00 | 90 | 1007.5 |
| 20260507044923 | 7 | 180 | 3.2 | 6.4 | 0.00 | 0.03 | 0.00 | 89 | 1007.4 |
| 20260507043918 | 7 | 180 | 3.2 | 6.4 | 0.00 | 0.03 | 0.00 | 90 | 1007.4 |
| 20260507042911 | 7 | 135 | 0.0 | 6.4 | 0.00 | 0.03 | 0.00 | 91 | 1007.3 |
| 20260507041908 | 7 | 157 | 1.6 | 6.4 | 0.00 | 0.03 | 0.00 | 91 | 1007.6 |
| 20260507040858 | 6 | 157 | 1.6 | 6.4 | 0.00 | 0.03 | 0.00 | 92 | 1007.5 |
| 20260507035853 | 6 | 157 | 0.0 | 3.2 | 0.00 | 0.03 | 0.00 | 92 | 1007.6 |
| 20260507034845 | 6 | 112 | 0.0 | 3.2 | 0.00 | 0.03 | 0.00 | 92 | 1007.2 |
| 20260507033840 | 6 | 135 | 0.0 | 6.4 | 0.00 | 0.03 | 0.00 | 92 | 1007.4 |
| 20260507032836 | 6 | 112 | 0.0 | 6.4 | 0.00 | 0.03 | 0.00 | 93 | 1007.0 |
| 20260507031828 | 6 | 135 | 1.6 | 6.4 | 0.00 | 0.03 | 0.00 | 93 | 1007.3 |
| 20260507030822 | 6 | 135 | 0.0 | 3.2 | 0.00 | 0.03 | 0.00 | 93 | 1007.1 |
| 20260507025815 | 6 | 135 | 0.0 | 6.4 | 0.00 | 0.03 | 0.00 | 93 | 1006.9 |
| 20260507024809 | 5 | 112 | 0.0 | 0.0 | 0.00 | 0.03 | 0.00 | 94 | 1007.0 |
| 20260507023806 | 5 | 90 | 0.0 | 0.0 | 0.00 | 0.03 | 0.00 | 94 | 1007.2 |
| 20260507022756 | 5 | 90 | 0.0 | 0.0 | 0.00 | 0.03 | 0.00 | 94 | 1007.0 |
| 20260507021751 | 5 | 90 | 0.0 | 0.0 | 0.00 | 0.03 | 0.00 | 94 | 1007.0 |
| 20260507020744 | 5 | 90 | 0.0 | 0.0 | 0.00 | 0.03 | 0.00 | 93 | 1007.1 |
| 20260507015738 | 5 | 90 | 0.0 | 0.0 | 0.00 | 0.03 | 0.00 | 93 | 1006.9 |
| 20260507014734 | 5 | 90 | 0.0 | 0.0 | 0.00 | 0.03 | 0.00 | 93 | 1007.1 |
| 20260507013727 | 5 | 90 | 0.0 | 3.2 | 0.00 | 0.03 | 0.00 | 92 | 1006.8 |
| 20260507012720 | 5 | 90 | 0.0 | 0.0 | 0.00 | 0.03 | 0.00 | 92 | 1006.8 |
| 20260507011713 | 5 | 90 | 0.0 | 6.4 | 0.00 | 0.03 | 0.00 | 92 | 1006.5 |
| 20260507010707 | 6 | 112 | 1.6 | 6.4 | 0.00 | 0.03 | 0.00 | 92 | 1006.5 |
| 20260507005703 | 5 | 90 | 0.0 | 3.2 | 0.00 | 0.03 | 0.00 | 91 | 1006.7 |
| 20260507004655 | 5 | 135 | 0.0 | 3.2 | 0.00 | 0.03 | 0.00 | 91 | 1006.7 |
| 20260507003648 | 5 | 90 | 0.0 | 0.0 | 0.00 | 0.03 | 0.00 | 91 | 1006.6 |
| 20260507002643 | 5 | 90 | 0.0 | 3.2 | 0.00 | 0.03 | 0.00 | 91 | 1006.8 |
| 20260507001636 | 6 | 112 | 0.0 | 6.4 | 0.00 | 0.03 | 0.00 | 90 | 1006.7 |
| 20260507000634 | 5 | 135 | 0.0 | 3.2 | 0.00 | 0.03 | 0.00 | 90 | 1006.9 |
| 20260506235624 | 5 | 90 | 0.0 | 0.0 | 0.00 | 0.03 | 0.00 | 89 | 1007.0 |
| 20260506234617 | 6 | 90 | 0.0 | 0.0 | 0.00 | 0.03 | 0.00 | 90 | 1007.0 |
| 20260506233611 | 6 | 90 | 0.0 | 6.4 | 0.00 | 0.03 | 0.00 | 89 | 1007.1 |
| 20260506232605 | 6 | 112 | 3.2 | 6.4 | 0.00 | 0.03 | 0.00 | 89 | 1006.8 |
| 20260506231602 | 6 | 157 | 0.0 | 3.2 | 0.00 | 0.05 | 0.00 | 89 | 1006.9 |
| 20260506230552 | 6 | 135 | 0.0 | 3.2 | 0.00 | 0.05 | 0.00 | 88 | 1006.8 |
| 20260506225546 | 6 | 135 | 0.0 | 6.4 | 0.00 | 0.05 | 0.00 | 88 | 1006.8 |
| 20260506224540 | 6 | 112 | 0.0 | 3.2 | 0.00 | 0.05 | 0.00 | 88 | 1006.9 |
| 20260506223535 | 6 | 135 | 0.0 | 0.0 | 0.00 | 0.05 | 0.00 | 87 | 1006.8 |
| 20260506222530 | 7 | 135 | 0.0 | 0.0 | 0.00 | 0.05 | 0.00 | 87 | 1006.8 |
| 20260506221521 | 7 | 135 | 0.0 | 6.4 | 0.00 | 0.05 | 0.00 | 86 | 1007.0 |
| 20260506220515 | 7 | 135 | 0.0 | 3.2 | 0.00 | 0.05 | 0.00 | 86 | 1006.8 |
| 20260506215510 | 7 | 135 | 0.0 | 3.2 | 0.00 | 0.05 | 0.00 | 86 | 1006.6 |
| 20260506214503 | 7 | 135 | 1.6 | 3.2 | 0.00 | 0.05 | 0.00 | 85 | 1006.7 |
| 20260506213500 | 7 | 180 | 1.6 | 6.4 | 0.00 | 0.05 | 0.00 | 85 | 1006.7 |
| 20260506212451 | 7 | 157 | 0.0 | 9.7 | 0.00 | 0.10 | 0.00 | 85 | 1006.7 |
| 20260506211445 | 8 | 202 | 0.0 | 6.4 | 0.00 | 0.10 | 0.00 | 85 | 1006.9 |
| 20260506210440 | 7 | 157 | 0.0 | 3.2 | 0.00 | 0.10 | 0.00 | 84 | 1006.9 |
| 20260506205432 | 8 | 112 | 0.0 | 0.0 | 0.00 | 0.10 | 0.10 | 84 | 1006.5 |
| 20260506204429 | 8 | 112 | 0.0 | 3.2 | 0.00 | 0.10 | 0.10 | 84 | 1006.5 |
| 20260506203419 | 8 | 135 | 1.6 | 6.4 | 0.00 | 0.10 | 0.10 | 83 | 1006.3 |
| 20260506202414 | 8 | 157 | 3.2 | 6.4 | 0.00 | 0.10 | 0.10 | 83 | 1006.1 |
| 20260506201407 | 8 | 90 | 1.6 | 9.7 | 0.00 | 0.10 | 0.10 | 83 | 1006.2 |
| 20260506200401 | 8 | 112 | 3.2 | 11.3 | 0.00 | 0.10 | 0.10 | 82 | 1006.3 |
| 20260506195358 | 8 | 90 | 3.2 | 6.4 | 0.00 | 0.10 | 0.10 | 82 | 1006.5 |
| 20260506194349 | 8 | 135 | 1.6 | 6.4 | 0.00 | 0.10 | 0.10 | 82 | 1006.7 |
| 20260506193344 | 8 | 157 | 3.2 | 6.4 | 0.00 | 0.10 | 0.10 | 82 | 1006.6 |
| 20260506192337 | 8 | 157 | 1.6 | 6.4 | 0.00 | 0.10 | 0.10 | 83 | 1006.6 |
| 20260506191330 | 8 | 157 | 4.8 | 12.9 | 0.03 | 0.10 | 0.10 | 82 | 1006.5 |
| 20260506190327 | 8 | 112 | 1.6 | 11.3 | 0.03 | 0.10 | 0.10 | 83 | 1007.0 |
| 20260506185318 | 8 | 112 | 3.2 | 9.7 | 0.03 | 0.10 | 0.10 | 83 | 1006.7 |
| 20260506184311 | 8 | 157 | 1.6 | 17.7 | 0.03 | 0.10 | 0.10 | 82 | 1006.7 |
| 20260506183305 | 8 | 135 | 0.0 | 11.3 | 0.03 | 0.10 | 0.10 | 83 | 1006.7 |
| 20260506182259 | 8 | 135 | 3.2 | 9.7 | 0.03 | 0.10 | 0.10 | 82 | 1006.5 |
| 20260506181256 | 9 | 135 | 0.0 | 9.7 | 0.00 | 0.05 | 0.05 | 83 | 1006.1 |
| 20260506180249 | 10 | 135 | 3.2 | 9.7 | 0.00 | 0.05 | 0.05 | 80 | 1006.0 |
| 20260506175240 | 10 | 180 | 3.2 | 6.4 | 0.00 | 0.05 | 0.05 | 74 | 1006.3 |
| 20260506174234 | 11 | 202 | 3.2 | 6.4 | 0.00 | 0.05 | 0.05 | 70 | 1006.1 |
| 20260506173229 | 11 | 180 | 1.6 | 6.4 | 0.00 | 0.05 | 0.05 | 66 | 1005.9 |
| 20260506172224 | 12 | 135 | 3.2 | 6.4 | 0.00 | 0.05 | 0.05 | 66 | 1005.5 |
| 20260506171215 | 12 | 180 | 0.0 | 9.7 | 0.00 | 0.05 | 0.05 | 67 | 1005.5 |
| 20260506170209 | 12 | 112 | 3.2 | 9.7 | 0.00 | 0.05 | 0.05 | 65 | 1005.3 |
| 20260506165203 | 13 | 157 | 1.6 | 11.3 | 0.00 | 0.05 | 0.05 | 63 | 1005.4 |
| 20260506164157 | 13 | 135 | 4.8 | 11.3 | 0.00 | 0.05 | 0.05 | 61 | 1005.5 |
| 20260506163155 | 13 | 135 | 0.0 | 6.4 | 0.00 | 0.05 | 0.05 | 61 | 1005.4 |
| 20260506162144 | 13 | 157 | 3.2 | 9.7 | 0.00 | 0.05 | 0.05 | 62 | 1005.3 |
| 20260506161138 | 13 | 135 | 3.2 | 11.3 | 0.00 | 0.05 | 0.05 | 62 | 1005.1 |
| 20260506160133 | 13 | 112 | 4.8 | 17.7 | 0.00 | 0.05 | 0.05 | 61 | 1005.3 |
| 20260506155126 | 13 | 112 | 6.4 | 20.9 | 0.00 | 0.05 | 0.05 | 61 | 1005.1 |
| 20260506154122 | 13 | 157 | 6.4 | 17.7 | 0.00 | 0.05 | 0.05 | 61 | 1005.6 |
| 20260506153113 | 13 | 112 | 3.2 | 17.7 | 0.00 | 0.05 | 0.05 | 61 | 1005.6 |
| 20260506152108 | 14 | 112 | 3.2 | 14.5 | 0.00 | 0.05 | 0.05 | 63 | 1005.8 |
| 20260506151101 | 14 | 112 | 6.4 | 17.7 | 0.00 | 0.05 | 0.05 | 63 | 1006.0 |
| 20260506150056 | 14 | 112 | 3.2 | 11.3 | 0.00 | 0.05 | 0.05 | 66 | 1006.4 |
| 20260506145052 | 14 | 90 | 4.8 | 12.9 | 0.00 | 0.05 | 0.05 | 66 | 1006.6 |
| 20260506144043 | 15 | 157 | 3.2 | 9.7 | 0.00 | 0.05 | 0.05 | 61 | 1007.3 |
| 20260506143037 | 15 | 180 | 3.2 | 9.7 | 0.00 | 0.05 | 0.05 | 59 | 1006.9 |
| 20260506142029 | 15 | 90 | 6.4 | 12.9 | 0.00 | 0.05 | 0.05 | 62 | 1006.8 |
| 20260506141024 | 16 | 112 | 6.4 | 17.7 | 0.00 | 0.05 | 0.05 | 61 | 1006.9 |
| 20260506140021 | 16 | 135 | 6.4 | 20.9 | 0.00 | 0.05 | 0.05 | 60 | 1007.1 |
| 20260506135011 | 16 | 67 | 9.7 | 24.1 | 0.00 | 0.05 | 0.05 | 58 | 1006.8 |
| 20260506134005 | 17 | 90 | 14.5 | 22.5 | 0.00 | 0.05 | 0.05 | 57 | 1006.6 |
| 20260506133000 | 17 | 112 | 3.2 | 14.5 | 0.00 | 0.05 | 0.05 | 54 | 1006.6 |
| 20260506131953 | 17 | 112 | 6.4 | 20.9 | 0.00 | 0.05 | 0.05 | 54 | 1007.0 |
| 20260506130951 | 17 | 202 | 8.0 | 14.5 | 0.00 | 0.05 | 0.05 | 53 | 1007.2 |
| 20260506125941 | 17 | 157 | 6.4 | 22.5 | 0.00 | 0.05 | 0.05 | 50 | 1007.3 |
| 20260506124935 | 17 | 157 | 6.4 | 20.9 | 0.00 | 0.05 | 0.05 | 53 | 1007.4 |
| 20260506123929 | 16 | 112 | 6.4 | 24.1 | 0.00 | 0.05 | 0.05 | 51 | 1007.2 |
| 20260506122922 | 16 | 90 | 4.8 | 22.5 | 0.00 | 0.05 | 0.05 | 51 | 1007.5 |
| 20260506121919 | 16 | 157 | 3.2 | 14.5 | 0.00 | 0.05 | 0.05 | 51 | 1007.7 |
| 20260506120910 | 16 | 90 | 4.8 | 22.5 | 0.00 | 0.05 | 0.05 | 49 | 1007.8 |
| 20260506115909 | 16 | 90 | 6.4 | 17.7 | 0.00 | 0.05 | 0.05 | 49 | 1007.9 |
| 20260506114857 | 16 | 90 | 6.4 | 17.7 | 0.00 | 0.05 | 0.05 | 48 | 1008.4 |
| 20260506113850 | 16 | 90 | 6.4 | 20.9 | 0.00 | 0.05 | 0.05 | 51 | 1007.9 |
| 20260506112849 | 16 | 135 | 6.4 | 20.9 | 0.00 | 0.05 | 0.05 | 49 | 1008.4 |
| 20260506111839 | 16 | 135 | 6.4 | 17.7 | 0.00 | 0.05 | 0.05 | 49 | 1008.2 |
| 20260506110832 | 16 | 45 | 6.4 | 27.4 | 0.00 | 0.05 | 0.05 | 51 | 1008.3 |
| 20260506105827 | 16 | 90 | 4.8 | 20.9 | 0.00 | 0.05 | 0.05 | 49 | 1008.5 |
| 20260506104820 | 16 | 112 | 6.4 | 17.7 | 0.00 | 0.05 | 0.05 | 49 | 1008.6 |
| 20260506103816 | 16 | 112 | 4.8 | 17.7 | 0.00 | 0.05 | 0.05 | 50 | 1008.6 |
| 20260506102808 | 16 | 90 | 6.4 | 22.5 | 0.00 | 0.05 | 0.05 | 50 | 1008.7 |
| 20260506101801 | 15 | 112 | 4.8 | 22.5 | 0.00 | 0.05 | 0.05 | 49 | 1008.9 |
| 20260506100755 | 15 | 135 | 9.7 | 17.7 | 0.00 | 0.05 | 0.05 | 52 | 1009.2 |
| 20260506095749 | 15 | 112 | 6.4 | 12.9 | 0.00 | 0.05 | 0.05 | 51 | 1009.2 |
| 20260506094746 | 15 | 112 | 6.4 | 17.7 | 0.00 | 0.05 | 0.05 | 52 | 1009.3 |
| 20260506093737 | 15 | 112 | 6.4 | 17.7 | 0.00 | 0.05 | 0.05 | 51 | 1009.4 |
| 20260506092731 | 15 | 90 | 6.4 | 20.9 | 0.00 | 0.05 | 0.05 | 50 | 1009.4 |
| 20260506091725 | 14 | 112 | 6.4 | 22.5 | 0.00 | 0.05 | 0.05 | 53 | 1009.4 |
| 20260506090718 | 14 | 67 | 3.2 | 14.5 | 0.00 | 0.05 | 0.05 | 54 | 1009.4 |
| 20260506085716 | 14 | 90 | 4.8 | 14.5 | 0.00 | 0.05 | 0.05 | 51 | 1009.3 |
| 20260506084706 | 13 | 90 | 6.4 | 17.7 | 0.00 | 0.05 | 0.05 | 53 | 1009.5 |
| 20260506083659 | 13 | 90 | 4.8 | 12.9 | 0.00 | 0.05 | 0.05 | 50 | 1009.5 |
| 20260506082653 | 13 | 112 | 6.4 | 17.7 | 0.00 | 0.05 | 0.05 | 48 | 1009.6 |
| 20260506081647 | 13 | 135 | 6.4 | 14.5 | 0.00 | 0.05 | 0.05 | 49 | 1009.6 |
| 20260506080644 | 13 | 112 | 6.4 | 20.9 | 0.00 | 0.05 | 0.05 | 49 | 1009.6 |
| 20260506072617 | 11 | 135 | 6.4 | 17.7 | 0.00 | 0.05 | 0.05 | 50 | 1010.1 |
| 20260506071613 | 11 | 112 | 4.8 | 12.9 | 0.00 | 0.05 | 0.05 | 55 | 1010.1 |